Time;durP1;ratioP1;P1;durP2;ratioP2;P2;SDS_P1;SDS_P2;PMS_P1;PMS_P2;Temp;Humidity;BMP_temperature;BMP_pressure;BME280_temperature;BME280_humidity;BME280_pressure;Samples;Min_cycle;Max_cycle;Signal;HPM_P1;HPM_P2
2023/04/30 00:02:19;;;;;;;;;;;12.41;16.12;;;;;;2673285;76;20355;-90
2023/04/30 00:05:47;;;;;;;;;;;12.41;16.13;;;;;;2674353;76;20705;-91
2023/04/30 00:09:15;;;;;;;;;;;12.37;16.13;;;;;;2674173;76;20344;-90
2023/04/30 00:12:43;;;;;;;;;;;12.32;16.15;;;;;;2674351;76;20340;-90
2023/04/30 00:16:11;;;;;;;;;;;12.22;16.18;;;;;;2674730;76;20328;-90
2023/04/30 00:19:39;;;;;;;;;;;12.16;16.19;;;;;;2674031;76;20343;-89
2023/04/30 00:23:07;;;;;;;;;;;12.05;16.17;;;;;;2672590;76;20418;-93
2023/04/30 00:26:35;;;;;;;;;;;11.94;16.16;;;;;;2674310;76;20334;-90
2023/04/30 00:30:04;;;;;;;;;;;11.86;16.29;;;;;;2674657;76;20338;-91
2023/04/30 00:33:32;;;;;;;;;;;11.83;16.46;;;;;;2673623;76;20312;-90
2023/04/30 00:37:00;;;;;;;;;;;11.77;16.58;;;;;;2674428;76;20367;-90
2023/04/30 00:40:28;;;;;;;;;;;11.76;16.45;;;;;;2674425;76;20397;-90
2023/04/30 00:43:56;;;;;;;;;;;11.72;16.42;;;;;;2674090;76;20337;-90
2023/04/30 00:47:24;;;;;;;;;;;11.62;16.37;;;;;;2673876;76;20323;-90
2023/04/30 00:50:52;;;;;;;;;;;11.53;16.36;;;;;;2674084;76;20321;-90
2023/04/30 00:54:20;;;;;;;;;;;11.48;16.46;;;;;;2673000;76;20309;-90
2023/04/30 00:57:48;;;;;;;;;;;11.53;16.77;;;;;;2674601;76;20307;-90
2023/04/30 01:01:17;;;;;;;;;;;11.57;16.90;;;;;;2673812;76;20323;-90
2023/04/30 01:04:45;;;;;;;;;;;11.62;16.81;;;;;;2673436;76;20322;-90
2023/04/30 01:08:13;;;;;;;;;;;11.63;16.93;;;;;;2674051;76;20311;-89
2023/04/30 01:11:41;;;;;;;;;;;11.63;17.06;;;;;;2674568;76;20322;-90
2023/04/30 01:15:09;;;;;;;;;;;11.67;17.25;;;;;;2673697;76;20309;-90
2023/04/30 01:18:37;;;;;;;;;;;11.71;17.22;;;;;;2674240;76;20322;-90
2023/04/30 01:22:08;;;;;;;;;;;11.75;17.35;;;;;;2673954;76;20327;-90
2023/04/30 01:25:36;;;;;;;;;;;11.73;17.54;;;;;;2673733;76;20330;-91
2023/04/30 01:29:05;;;;;;;;;;;11.76;17.57;;;;;;2674685;76;20346;-90
2023/04/30 01:32:33;;;;;;;;;;;11.79;17.68;;;;;;2673844;76;20316;-90
2023/04/30 01:36:01;;;;;;;;;;;11.82;17.86;;;;;;2673925;76;20323;-89
2023/04/30 01:39:29;;;;;;;;;;;11.91;17.88;;;;;;2672460;76;20366;-91
2023/04/30 01:42:57;;;;;;;;;;;11.96;17.64;;;;;;2673722;76;20376;-90
2023/04/30 01:46:26;;;;;;;;;;;11.94;17.52;;;;;;2674434;76;20338;-90
2023/04/30 01:49:54;;;;;;;;;;;11.97;17.70;;;;;;2673355;76;20325;-89
2023/04/30 01:53:22;;;;;;;;;;;11.98;17.73;;;;;;2674067;76;20303;-90
2023/04/30 01:56:50;;;;;;;;;;;11.99;17.71;;;;;;2673992;76;20331;-90
2023/04/30 02:00:18;;;;;;;;;;;11.98;17.84;;;;;;2673438;76;20348;-89
2023/04/30 02:03:46;;;;;;;;;;;11.99;17.80;;;;;;2674103;76;20353;-90
2023/04/30 02:07:14;;;;;;;;;;;11.98;17.90;;;;;;2674224;76;20332;-89
2023/04/30 02:10:42;;;;;;;;;;;12.01;17.99;;;;;;2673316;76;20306;-90
2023/04/30 02:14:10;;;;;;;;;;;12.02;18.05;;;;;;2674948;76;20344;-89
2023/04/30 02:17:39;;;;;;;;;;;12.01;18.09;;;;;;2673995;76;20391;-89
2023/04/30 02:21:07;;;;;;;;;;;11.98;18.01;;;;;;2674450;76;20354;-90
2023/04/30 02:24:35;;;;;;;;;;;11.94;18.06;;;;;;2675137;76;20303;-90
2023/04/30 02:28:03;;;;;;;;;;;11.90;18.03;;;;;;2675160;76;20307;-91
2023/04/30 02:31:31;;;;;;;;;;;11.77;18.01;;;;;;2674662;76;20303;-90
2023/04/30 02:34:59;;;;;;;;;;;11.70;18.06;;;;;;2674462;76;20307;-90
2023/04/30 02:38:27;;;;;;;;;;;11.61;18.07;;;;;;2673809;76;21047;-90
2023/04/30 02:41:56;;;;;;;;;;;11.56;18.30;;;;;;2674263;76;20387;-90
2023/04/30 02:45:24;;;;;;;;;;;11.54;18.55;;;;;;2674560;76;20357;-90
2023/04/30 02:48:52;;;;;;;;;;;11.56;18.83;;;;;;2672995;76;20330;-90
2023/04/30 02:52:20;;;;;;;;;;;11.57;18.91;;;;;;2674714;76;20308;-90
2023/04/30 02:55:48;;;;;;;;;;;11.55;18.99;;;;;;2674714;76;20643;-91
2023/04/30 02:59:16;;;;;;;;;;;11.58;18.89;;;;;;2673765;76;20306;-89
2023/04/30 03:02:44;;;;;;;;;;;11.57;19.09;;;;;;2674885;76;20749;-89
2023/04/30 03:06:12;;;;;;;;;;;11.51;19.09;;;;;;2674884;76;20315;-90
2023/04/30 03:09:40;;;;;;;;;;;11.43;19.06;;;;;;2673885;76;20334;-90
2023/04/30 03:13:08;;;;;;;;;;;11.37;18.97;;;;;;2673837;76;20627;-90
2023/04/30 03:16:37;;;;;;;;;;;11.28;18.86;;;;;;2673884;76;20345;-91
2023/04/30 03:20:05;;;;;;;;;;;11.20;18.87;;;;;;2674028;76;20309;-91
2023/04/30 03:23:33;;;;;;;;;;;11.17;19.02;;;;;;2674654;76;20344;-92
2023/04/30 03:27:03;;;;;;;;;;;11.19;19.18;;;;;;2674159;76;20315;-91
2023/04/30 03:30:31;;;;;;;;;;;11.16;19.15;;;;;;2674138;76;20327;-90
2023/04/30 03:33:59;;;;;;;;;;;11.15;19.17;;;;;;2674565;76;20369;-92
2023/04/30 03:37:27;;;;;;;;;;;11.15;19.30;;;;;;2674022;76;20311;-91
2023/04/30 03:40:55;;;;;;;;;;;11.20;19.34;;;;;;2674482;76;20359;-90
2023/04/30 03:44:23;;;;;;;;;;;11.23;19.51;;;;;;2674200;76;20362;-90
2023/04/30 03:47:51;;;;;;;;;;;11.24;19.64;;;;;;2674406;76;20318;-91
2023/04/30 03:51:19;;;;;;;;;;;11.23;19.73;;;;;;2672830;76;20382;-90
2023/04/30 03:54:47;;;;;;;;;;;11.17;19.67;;;;;;2674613;76;20346;-93
2023/04/30 03:58:16;;;;;;;;;;;11.12;19.36;;;;;;2674209;76;20368;-94
2023/04/30 04:01:44;;;;;;;;;;;11.01;19.30;;;;;;2674240;76;20358;-93
2023/04/30 04:05:13;;;;;;;;;;;10.99;19.42;;;;;;2675041;76;20353;-93
2023/04/30 04:08:42;;;;;;;;;;;10.97;19.43;;;;;;2674650;76;20319;-93
2023/04/30 04:12:10;;;;;;;;;;;10.94;19.27;;;;;;2674226;76;20730;-93
2023/04/30 04:15:38;;;;;;;;;;;10.95;19.28;;;;;;2674780;76;20367;-93
2023/04/30 04:19:06;;;;;;;;;;;11.02;19.39;;;;;;2674310;76;20796;-93
2023/04/30 04:22:34;;;;;;;;;;;11.11;19.40;;;;;;2673001;76;20357;-93
2023/04/30 04:26:03;;;;;;;;;;;11.20;19.35;;;;;;2676000;76;20299;-93
2023/04/30 04:29:34;;;;;;;;;;;11.33;19.21;;;;;;2676261;76;20407;-94
2023/04/30 04:33:02;;;;;;;;;;;11.36;18.93;;;;;;2676000;76;20376;-94
2023/04/30 04:36:33;;;;;;;;;;;11.41;18.83;;;;;;2675520;76;20339;-92
2023/04/30 04:40:03;;;;;;;;;;;11.43;18.93;;;;;;2674840;76;20372;-93
2023/04/30 04:43:31;;;;;;;;;;;11.53;18.87;;;;;;2674598;76;20321;-93
2023/04/30 04:46:59;;;;;;;;;;;11.55;18.80;;;;;;2673704;76;20336;-93
2023/04/30 04:50:27;;;;;;;;;;;11.60;18.90;;;;;;2674723;76;20302;-92
2023/04/30 04:53:55;;;;;;;;;;;11.76;19.04;;;;;;2674905;76;20454;-93
2023/04/30 04:57:26;;;;;;;;;;;11.98;19.11;;;;;;2673997;76;20336;-93
2023/04/30 05:00:54;;;;;;;;;;;12.19;19.17;;;;;;2674350;76;20367;-93
2023/04/30 05:04:22;;;;;;;;;;;12.40;19.02;;;;;;2674826;76;20309;-92
2023/04/30 05:07:58;;;;;;;;;;;12.53;18.88;;;;;;2674235;76;20327;-93
2023/04/30 05:11:21;;;;;;;;;;;12.65;18.75;;;;;;2674340;76;20545;-93
2023/04/30 05:14:50;;;;;;;;;;;12.73;18.43;;;;;;2675103;76;20311;-94
2023/04/30 05:18:18;;;;;;;;;;;12.77;18.02;;;;;;2678891;76;20327;-93
2023/04/30 05:21:46;;;;;;;;;;;12.87;18.10;;;;;;2674473;76;20343;-93
2023/04/30 05:25:14;;;;;;;;;;;12.90;17.35;;;;;;2674128;76;21034;-93
2023/04/30 05:28:42;;;;;;;;;;;12.97;17.16;;;;;;2674723;76;20315;-93
2023/04/30 05:32:11;;;;;;;;;;;13.03;17.06;;;;;;2673860;76;20393;-94
2023/04/30 05:35:39;;;;;;;;;;;13.15;17.12;;;;;;2674818;76;20379;-93
2023/04/30 05:39:08;;;;;;;;;;;13.26;16.71;;;;;;2673656;76;20999;-93
2023/04/30 05:42:39;;;;;;;;;;;13.33;15.74;;;;;;2674357;76;20339;-94
2023/04/30 05:46:07;;;;;;;;;;;13.53;15.85;;;;;;2674421;76;20743;-93
2023/04/30 05:49:37;;;;;;;;;;;13.78;15.73;;;;;;2673459;76;20797;-93
2023/04/30 05:53:06;;;;;;;;;;;13.83;14.68;;;;;;2674581;76;20365;-93
2023/04/30 05:56:34;;;;;;;;;;;13.94;13.61;;;;;;2674593;76;20874;-94
2023/04/30 06:00:05;;;;;;;;;;;14.04;12.57;;;;;;2674312;76;20317;-94
2023/04/30 06:03:32;;;;;;;;;;;14.35;12.14;;;;;;2675293;76;20311;-93
2023/04/30 06:07:00;;;;;;;;;;;14.52;10.99;;;;;;2674888;76;20360;-92
2023/04/30 06:10:28;;;;;;;;;;;14.67;10.10;;;;;;2673286;76;20347;-93
2023/04/30 06:13:56;;;;;;;;;;;15.02;10.23;;;;;;2673675;76;20338;-93
2023/04/30 06:17:24;;;;;;;;;;;15.19;9.84;;;;;;2673901;76;20344;-93
2023/04/30 06:20:53;;;;;;;;;;;15.29;9.40;;;;;;2674308;76;20350;-93
2023/04/30 06:24:21;;;;;;;;;;;15.38;8.76;;;;;;2673309;76;20780;-93
2023/04/30 06:27:51;;;;;;;;;;;15.45;8.07;;;;;;2674030;76;20310;-93
2023/04/30 06:31:20;;;;;;;;;;;15.55;7.48;;;;;;2674179;76;20316;-93
2023/04/30 06:34:48;;;;;;;;;;;15.53;6.55;;;;;;2674645;76;20371;-94
2023/04/30 06:38:17;;;;;;;;;;;15.54;6.21;;;;;;2674458;76;20572;-94
2023/04/30 06:41:46;;;;;;;;;;;15.55;5.67;;;;;;2673717;76;20316;-94
2023/04/30 06:45:14;;;;;;;;;;;15.73;5.17;;;;;;2673536;76;20891;-94
2023/04/30 06:48:42;;;;;;;;;;;16.19;5.78;;;;;;2673376;76;20358;-94
2023/04/30 06:52:10;;;;;;;;;;;16.21;3.99;;;;;;2673943;76;20314;-94
2023/04/30 06:55:38;;;;;;;;;;;16.26;3.80;;;;;;2672391;76;20341;-94
2023/04/30 06:59:07;;;;;;;;;;;16.30;3.28;;;;;;2674269;76;20312;-94
2023/04/30 07:02:35;;;;;;;;;;;16.47;3.22;;;;;;2674041;76;20322;-94
2023/04/30 07:06:04;;;;;;;;;;;16.16;2.82;;;;;;2673783;76;20317;-94
2023/04/30 07:09:32;;;;;;;;;;;15.90;2.97;;;;;;2673947;76;20801;-93
2023/04/30 07:13:00;;;;;;;;;;;15.59;2.63;;;;;;2672920;76;20346;-94
2023/04/30 07:16:31;;;;;;;;;;;15.43;2.62;;;;;;2674621;76;20354;-93
2023/04/30 07:19:59;;;;;;;;;;;15.21;3.28;;;;;;2674001;76;20351;-93
2023/04/30 07:23:27;;;;;;;;;;;14.91;4.07;;;;;;2674254;76;20640;-93
2023/04/30 07:27:01;;;;;;;;;;;14.72;4.93;;;;;;2672134;76;20323;-93
2023/04/30 07:30:28;;;;;;;;;;;14.56;5.21;;;;;;2674434;76;20307;-92
2023/04/30 07:33:58;;;;;;;;;;;14.48;5.92;;;;;;2674199;76;20311;-92
2023/04/30 07:37:26;;;;;;;;;;;14.43;6.12;;;;;;2674698;76;20308;-92
2023/04/30 07:40:54;;;;;;;;;;;14.49;6.47;;;;;;2673827;76;20352;-90
2023/04/30 07:44:22;;;;;;;;;;;14.77;6.29;;;;;;2674103;76;20327;-91
2023/04/30 07:47:51;;;;;;;;;;;14.97;5.76;;;;;;2675421;76;20429;-92
2023/04/30 07:51:19;;;;;;;;;;;15.82;4.03;;;;;;2674251;76;20580;-92
2023/04/30 07:54:47;;;;;;;;;;;16.86;2.52;;;;;;2673932;76;20742;-93
2023/04/30 07:58:15;;;;;;;;;;;17.04;-0.23;;;;;;2676219;76;20331;-93
2023/04/30 08:01:45;;;;;;;;;;;17.05;0.10;;;;;;2678406;76;20309;-91
2023/04/30 08:05:13;;;;;;;;;;;16.70;0.36;;;;;;2675829;76;20350;-92
2023/04/30 08:08:43;;;;;;;;;;;16.93;0.65;;;;;;2676818;76;20310;-92
2023/04/30 08:12:14;;;;;;;;;;;16.81;-0.09;;;;;;2676288;76;20350;-92
2023/04/30 08:15:43;;;;;;;;;;;17.17;-0.40;;;;;;2676835;76;20761;-92
2023/04/30 08:19:11;;;;;;;;;;;17.85;-2.27;;;;;;2676754;76;20346;-92
2023/04/30 08:22:39;;;;;;;;;;;18.19;-3.14;;;;;;2676465;76;20343;-92
2023/04/30 08:26:07;;;;;;;;;;;18.65;-4.37;;;;;;2676668;76;20344;-92
2023/04/30 08:29:35;;;;;;;;;;;18.86;118.21;;;;;;2676300;76;21051;-93
2023/04/30 08:33:03;;;;;;;;;;;19.20;117.58;;;;;;2676434;76;20343;-92
2023/04/30 08:36:31;;;;;;;;;;;18.62;117.63;;;;;;2673971;76;20324;-92
2023/04/30 08:39:59;;;;;;;;;;;17.92;-5.36;;;;;;2675185;76;20353;-92
2023/04/30 08:43:28;;;;;;;;;;;17.16;-4.53;;;;;;2675270;76;20321;-92
2023/04/30 08:46:59;;;;;;;;;;;17.13;-3.25;;;;;;2674878;76;20307;-92
2023/04/30 08:50:26;;;;;;;;;;;16.78;-4.42;;;;;;2675120;76;20790;-92
2023/04/30 08:53:54;;;;;;;;;;;16.61;-4.05;;;;;;2678852;76;20292;-92
2023/04/30 08:57:22;;;;;;;;;;;16.47;-3.56;;;;;;2678495;76;20301;-92
2023/04/30 09:00:53;;;;;;;;;;;16.34;-3.35;;;;;;2681741;76;20318;-92
2023/04/30 09:04:21;;;;;;;;;;;16.72;-3.10;;;;;;2676415;76;20307;-92
2023/04/30 09:07:50;;;;;;;;;;;17.24;-3.71;;;;;;2676065;76;20286;-92
2023/04/30 09:11:18;;;;;;;;;;;17.77;-5.35;;;;;;2675155;76;20305;-92
2023/04/30 09:14:46;;;;;;;;;;;18.13;117.75;;;;;;2676151;76;20325;-91
2023/04/30 09:18:16;;;;;;;;;;;18.35;117.73;;;;;;2676106;76;20425;-92
2023/04/30 09:21:45;;;;;;;;;;;18.81;116.32;;;;;;2675198;76;20321;-92
2023/04/30 09:25:13;;;;;;;;;;;19.27;115.22;;;;;;2675449;76;20881;-93
2023/04/30 09:28:42;;;;;;;;;;;19.74;114.60;;;;;;2675401;76;20321;-92
2023/04/30 09:32:10;;;;;;;;;;;19.83;113.34;;;;;;2674855;76;20320;-92
2023/04/30 09:35:38;;;;;;;;;;;20.15;113.08;;;;;;2674110;76;20311;-93
2023/04/30 09:39:07;;;;;;;;;;;20.35;113.01;;;;;;2675426;76;20318;-92
2023/04/30 09:42:35;;;;;;;;;;;19.96;113.65;;;;;;2675453;76;20307;-93
2023/04/30 09:46:06;;;;;;;;;;;19.56;114.01;;;;;;2675735;76;20323;-92
2023/04/30 09:49:34;;;;;;;;;;;19.65;113.96;;;;;;2675487;76;20324;-93
2023/04/30 09:53:02;;;;;;;;;;;19.63;114.12;;;;;;2674967;76;20239;-91
2023/04/30 09:56:31;;;;;;;;;;;19.73;114.46;;;;;;2674408;76;20330;-91
2023/04/30 09:59:59;;;;;;;;;;;19.79;113.87;;;;;;2673561;76;20307;-92
2023/04/30 10:03:27;;;;;;;;;;;20.02;113.65;;;;;;2674181;76;20313;-91
2023/04/30 10:06:55;;;;;;;;;;;20.28;112.48;;;;;;2673538;76;20332;-92
2023/04/30 10:10:23;;;;;;;;;;;20.51;111.03;;;;;;2673707;76;20286;-92
2023/04/30 10:13:52;;;;;;;;;;;20.87;110.36;;;;;;2671456;76;20318;-92
2023/04/30 10:17:20;;;;;;;;;;;21.15;109.56;;;;;;2672715;76;20426;-92
2023/04/30 10:20:48;;;;;;;;;;;21.07;108.66;;;;;;2673962;76;20369;-91
2023/04/30 10:24:19;;;;;;;;;;;21.31;109.20;;;;;;2673273;76;20334;-91
2023/04/30 10:27:47;;;;;;;;;;;21.57;109.59;;;;;;2672321;76;20310;-91
2023/04/30 10:31:16;;;;;;;;;;;21.87;109.24;;;;;;2673910;76;20330;-92
2023/04/30 10:34:44;;;;;;;;;;;22.05;108.31;;;;;;2674355;76;20334;-91
2023/04/30 10:38:12;;;;;;;;;;;22.75;106.60;;;;;;2673449;76;20334;-92
2023/04/30 10:41:41;;;;;;;;;;;23.17;105.48;;;;;;2673762;76;20358;-91
2023/04/30 10:45:09;;;;;;;;;;;22.99;103.54;;;;;;2673751;76;20342;-92
2023/04/30 10:48:37;;;;;;;;;;;23.34;102.77;;;;;;2674322;76;20315;-92
2023/04/30 10:52:05;;;;;;;;;;;23.64;101.99;;;;;;2673110;76;20305;-91
2023/04/30 10:55:38;;;;;;;;;;;23.52;102.01;;;;;;2670382;76;20344;-92
2023/04/30 10:59:03;;;;;;;;;;;23.77;100.95;;;;;;2672743;76;20352;-92
2023/04/30 11:02:31;;;;;;;;;;;23.74;99.78;;;;;;2673765;76;20340;-92
2023/04/30 11:06:02;;;;;;;;;;;23.84;99.61;;;;;;2671111;76;20340;-88
2023/04/30 11:09:29;;;;;;;;;;;23.52;100.99;;;;;;2674200;76;20982;-92
2023/04/30 11:12:57;;;;;;;;;;;23.24;100.93;;;;;;2674161;76;20346;-92
2023/04/30 11:16:25;;;;;;;;;;;23.26;100.15;;;;;;2672558;76;20311;-93
2023/04/30 11:19:53;;;;;;;;;;;23.85;99.16;;;;;;2674062;76;20318;-93
2023/04/30 11:23:21;;;;;;;;;;;23.70;97.47;;;;;;2673870;76;20350;-93
2023/04/30 11:26:49;;;;;;;;;;;23.95;97.18;;;;;;2672186;76;20318;-93
2023/04/30 11:30:17;;;;;;;;;;;23.79;97.23;;;;;;2671789;76;20524;-90
2023/04/30 11:33:45;;;;;;;;;;;23.95;97.29;;;;;;2673027;76;21081;-94
2023/04/30 11:37:13;;;;;;;;;;;24.06;96.09;;;;;;2672742;76;20338;-92
2023/04/30 11:40:42;;;;;;;;;;;24.24;96.36;;;;;;2675154;76;20351;-91
2023/04/30 11:44:10;;;;;;;;;;;24.28;95.73;;;;;;2674721;76;20364;-92
2023/04/30 11:47:38;;;;;;;;;;;23.71;94.57;;;;;;2674669;76;20334;-93
2023/04/30 11:51:09;;;;;;;;;;;23.27;94.84;;;;;;2673016;76;20762;-92
2023/04/30 11:54:37;;;;;;;;;;;22.97;95.20;;;;;;2672143;76;20292;-89
2023/04/30 11:58:09;;;;;;;;;;;23.20;96.17;;;;;;2673433;76;20308;-91
2023/04/30 12:01:37;;;;;;;;;;;23.57;95.98;;;;;;2674944;76;20295;-91
2023/04/30 12:05:05;;;;;;;;;;;23.79;94.65;;;;;;2674795;76;20349;-91
2023/04/30 12:08:33;;;;;;;;;;;23.41;94.33;;;;;;2675045;76;20325;-91
2023/04/30 12:12:03;;;;;;;;;;;22.65;94.62;;;;;;2675424;76;20302;-91
2023/04/30 12:15:33;;;;;;;;;;;22.04;96.42;;;;;;2675490;76;20361;-91
2023/04/30 12:19:02;;;;;;;;;;;21.78;97.32;;;;;;2675014;76;20319;-91
2023/04/30 12:22:32;;;;;;;;;;;21.83;97.76;;;;;;2675081;76;20288;-91
2023/04/30 12:26:03;;;;;;;;;;;22.20;97.27;;;;;;2675210;76;20759;-91
2023/04/30 12:29:31;;;;;;;;;;;22.33;96.52;;;;;;2675270;76;20316;-91
2023/04/30 12:32:59;;;;;;;;;;;22.26;96.65;;;;;;2675573;76;20306;-91
2023/04/30 12:36:27;;;;;;;;;;;21.99;97.10;;;;;;2675521;76;20329;-92
2023/04/30 12:39:55;;;;;;;;;;;22.54;97.67;;;;;;2674521;76;20305;-92
2023/04/30 12:43:23;;;;;;;;;;;22.80;97.22;;;;;;2675409;76;20724;-92
2023/04/30 12:47:00;;;;;;;;;;;23.28;96.10;;;;;;2675399;76;20808;-92
2023/04/30 12:50:28;;;;;;;;;;;23.84;94.64;;;;;;2675622;76;20321;-93
2023/04/30 12:53:56;;;;;;;;;;;24.20;94.47;;;;;;2675370;76;20339;-93
2023/04/30 12:57:24;;;;;;;;;;;24.12;93.59;;;;;;2675554;76;20319;-92
2023/04/30 13:00:52;;;;;;;;;;;24.18;94.09;;;;;;2674917;76;20368;-92
2023/04/30 13:04:20;;;;;;;;;;;23.98;92.91;;;;;;2675403;76;20316;-92
2023/04/30 13:07:48;;;;;;;;;;;23.86;92.21;;;;;;2675361;76;20738;-92
2023/04/30 13:11:16;;;;;;;;;;;23.98;93.14;;;;;;2675464;76;20782;-93
2023/04/30 13:14:45;;;;;;;;;;;24.10;93.42;;;;;;2675643;76;20349;-91
2023/04/30 13:18:14;;;;;;;;;;;24.24;93.08;;;;;;2675142;76;20399;-92
2023/04/30 13:21:42;;;;;;;;;;;24.11;92.37;;;;;;2675064;76;20332;-91
2023/04/30 13:25:11;;;;;;;;;;;23.47;91.60;;;;;;2675624;76;20287;-92
2023/04/30 13:28:39;;;;;;;;;;;23.47;91.71;;;;;;2677293;76;20316;-89
2023/04/30 13:32:08;;;;;;;;;;;22.83;91.77;;;;;;2675109;76;20312;-92
2023/04/30 13:35:46;;;;;;;;;;;22.07;92.82;;;;;;2675361;76;20321;-92
2023/04/30 13:39:11;;;;;;;;;;;21.87;94.41;;;;;;2674212;76;20325;-90
2023/04/30 13:42:39;;;;;;;;;;;21.42;96.26;;;;;;2674199;76;20676;-89
2023/04/30 13:46:07;;;;;;;;;;;21.13;97.47;;;;;;2674895;76;20342;-89
2023/04/30 13:49:35;;;;;;;;;;;21.06;99.03;;;;;;2675427;76;20789;-91
2023/04/30 13:53:03;;;;;;;;;;;21.52;99.51;;;;;;2674677;76;20766;-94
2023/04/30 13:56:31;;;;;;;;;;;21.62;98.91;;;;;;2675227;76;20355;-90
2023/04/30 14:00:00;;;;;;;;;;;21.44;96.70;;;;;;2674225;76;20299;-91
2023/04/30 14:03:28;;;;;;;;;;;21.61;97.07;;;;;;2675894;76;20346;-96
2023/04/30 14:07:02;;;;;;;;;;;22.07;97.72;;;;;;2678035;76;20334;-92
2023/04/30 14:10:31;;;;;;;;;;;21.92;97.59;;;;;;2675447;76;20384;-88
2023/04/30 14:13:59;;;;;;;;;;;21.81;98.72;;;;;;2675273;76;20326;-93
2023/04/30 14:17:28;;;;;;;;;;;21.49;98.10;;;;;;2680829;76;20356;-93
2023/04/30 14:20:56;;;;;;;;;;;21.63;97.78;;;;;;2676553;76;20310;-93
2023/04/30 14:25:26;;;;;;;;;;;21.80;97.73;;;;;;2675908;76;20307;-91
2023/04/30 14:28:54;;;;;;;;;;;23.50;96.01;;;;;;2675168;76;20327;-91
2023/04/30 14:32:22;;;;;;;;;;;26.77;91.89;;;;;;2675904;76;20782;-92
2023/04/30 14:35:50;;;;;;;;;;;28.92;87.33;;;;;;2675708;76;20344;-91
2023/04/30 14:39:18;;;;;;;;;;;26.66;85.26;;;;;;2675006;76;20779;-92
2023/04/30 14:42:49;;;;;;;;;;;25.53;87.70;;;;;;2675281;76;20331;-91
2023/04/30 14:46:16;;;;;;;;;;;27.98;85.08;;;;;;2675396;76;20309;-91
2023/04/30 14:49:44;;;;;;;;;;;29.05;82.94;;;;;;2674959;76;20314;-91
2023/04/30 14:53:12;;;;;;;;;;;29.41;81.53;;;;;;2675278;76;20309;-91
2023/04/30 14:56:41;;;;;;;;;;;29.39;80.68;;;;;;2674728;76;20679;-92
2023/04/30 15:00:09;;;;;;;;;;;27.00;79.92;;;;;;2675122;76;20319;-91
2023/04/30 15:03:37;;;;;;;;;;;28.15;81.38;;;;;;2674987;76;20382;-91
2023/04/30 15:07:08;;;;;;;;;;;29.39;80.13;;;;;;2673725;76;20338;-91
2023/04/30 15:10:36;;;;;;;;;;;27.76;79.90;;;;;;2674168;76;20315;-91
2023/04/30 15:14:04;;;;;;;;;;;26.57;82.52;;;;;;2674768;76;20339;-91
2023/04/30 15:17:38;;;;;;;;;;;27.61;82.41;;;;;;2674631;76;20330;-90
2023/04/30 15:21:06;;;;;;;;;;;30.12;79.77;;;;;;2675018;76;20351;-91
2023/04/30 15:24:35;;;;;;;;;;;32.04;75.71;;;;;;2675381;76;20352;-90
2023/04/30 15:28:03;;;;;;;;;;;31.57;74.00;;;;;;2674580;76;20356;-90
2023/04/30 15:31:31;;;;;;;;;;;32.41;73.24;;;;;;2674761;76;20344;-90
2023/04/30 15:34:59;;;;;;;;;;;32.90;72.60;;;;;;2674595;76;20758;-92
2023/04/30 15:38:27;;;;;;;;;;;33.29;71.11;;;;;;2674758;76;20751;-90
2023/04/30 15:41:55;;;;;;;;;;;33.43;70.39;;;;;;2673966;76;20309;-93
2023/04/30 15:45:26;;;;;;;;;;;32.17;70.15;;;;;;2674806;76;20309;-92
2023/04/30 15:48:54;;;;;;;;;;;30.18;71.01;;;;;;2676010;76;20770;-92
2023/04/30 15:55:56;;;;;;;;;;;26.73;76.60;;;;;;2675009;76;20341;-92
2023/04/30 15:59:28;;;;;;;;;;;26.62;79.71;;;;;;2674911;76;20326;-92
2023/04/30 16:03:04;;;;;;;;;;;26.66;77.38;;;;;;2678182;76;20729;-94
2023/04/30 16:06:32;;;;;;;;;;;23.77;82.62;;;;;;2675889;76;20331;-92
2023/04/30 16:10:02;;;;;;;;;;;22.26;86.99;;;;;;2674736;76;20328;-90
2023/04/30 16:13:30;;;;;;;;;;;21.78;88.10;;;;;;2674325;76;20369;-90
2023/04/30 16:17:02;;;;;;;;;;;23.39;88.64;;;;;;2674147;76;20423;-90
2023/04/30 16:20:30;;;;;;;;;;;23.65;87.09;;;;;;2673715;76;20322;-90
2023/04/30 16:23:59;;;;;;;;;;;23.58;87.62;;;;;;2673989;76;20297;-90
2023/04/30 16:27:27;;;;;;;;;;;21.51;89.09;;;;;;2674836;76;20805;-90
2023/04/30 16:31:00;;;;;;;;;;;20.54;92.66;;;;;;2676969;76;20310;-94
2023/04/30 16:34:33;;;;;;;;;;;21.30;93.56;;;;;;2675801;76;20360;-92
2023/04/30 16:38:01;;;;;;;;;;;22.09;93.17;;;;;;2675518;76;20733;-92
2023/04/30 16:45:08;;;;;;;;;;;20.95;93.01;;;;;;2677845;76;20390;-92
2023/04/30 16:48:36;;;;;;;;;;;20.04;94.29;;;;;;2674792;76;20759;-92
2023/04/30 16:52:08;;;;;;;;;;;19.71;95.45;;;;;;2675013;76;20303;-91
2023/04/30 16:55:38;;;;;;;;;;;19.45;95.75;;;;;;2674639;76;20334;-92
2023/04/30 16:59:06;;;;;;;;;;;19.52;95.75;;;;;;2674999;76;20795;-92
2023/04/30 17:02:35;;;;;;;;;;;20.78;94.15;;;;;;2675224;76;20306;-91
2023/04/30 17:06:04;;;;;;;;;;;20.01;93.79;;;;;;2675116;76;20755;-91
2023/04/30 17:09:40;;;;;;;;;;;19.62;95.27;;;;;;2674778;76;20344;-91
2023/04/30 17:13:04;;;;;;;;;;;19.26;95.69;;;;;;2674715;76;20313;-90
2023/04/30 17:16:33;;;;;;;;;;;18.78;96.42;;;;;;2678163;76;20312;-92
2023/04/30 17:20:01;;;;;;;;;;;18.32;97.49;;;;;;2675708;76;20314;-91
2023/04/30 17:23:32;;;;;;;;;;;18.05;98.32;;;;;;2674199;76;20298;-92
2023/04/30 17:26:59;;;;;;;;;;;17.82;98.87;;;;;;2676702;76;21017;-95
2023/04/30 17:31:01;;;;;;;;;;;17.54;99.87;;;;;;2678426;76;20332;-93
2023/04/30 17:42:17;;;;;;;;;;;16.77;102.92;;;;;;2674256;76;20320;-92
2023/04/30 17:46:04;;;;;;;;;;;16.43;103.61;;;;;;2677317;76;20934;-93
2023/04/30 17:49:32;;;;;;;;;;;16.33;104.24;;;;;;2674176;76;20302;-93
2023/04/30 17:53:00;;;;;;;;;;;16.14;105.36;;;;;;2675426;76;20314;-93
2023/04/30 17:56:30;;;;;;;;;;;15.90;105.71;;;;;;2675121;76;20331;-92
2023/04/30 17:59:58;;;;;;;;;;;15.65;106.59;;;;;;2674140;76;20392;-93
2023/04/30 18:03:26;;;;;;;;;;;15.37;107.13;;;;;;2673865;76;20323;-92
2023/04/30 18:06:54;;;;;;;;;;;15.26;107.88;;;;;;2674400;76;20319;-93
2023/04/30 18:10:22;;;;;;;;;;;15.03;108.30;;;;;;2674421;76;21701;-93
2023/04/30 18:13:50;;;;;;;;;;;14.74;109.48;;;;;;2673919;76;20322;-93
2023/04/30 18:17:18;;;;;;;;;;;14.64;109.88;;;;;;2674647;76;20364;-93
2023/04/30 18:20:46;;;;;;;;;;;14.49;110.18;;;;;;2675217;76;20307;-92
2023/04/30 18:24:15;;;;;;;;;;;14.28;110.92;;;;;;2674047;76;20331;-92
2023/04/30 18:27:43;;;;;;;;;;;14.17;111.45;;;;;;2675043;76;20316;-92
2023/04/30 18:31:11;;;;;;;;;;;14.05;111.76;;;;;;2675166;76;20309;-93
2023/04/30 18:34:39;;;;;;;;;;;13.91;112.13;;;;;;2674634;76;20300;-92
2023/04/30 18:38:07;;;;;;;;;;;13.79;113.07;;;;;;2675105;76;20341;-92
2023/04/30 18:41:36;;;;;;;;;;;13.67;113.76;;;;;;2674792;76;20302;-92
2023/04/30 18:45:04;;;;;;;;;;;13.61;114.17;;;;;;2675098;76;20297;-92
2023/04/30 18:48:32;;;;;;;;;;;13.51;114.16;;;;;;2674917;76;20300;-92
2023/04/30 18:52:05;;;;;;;;;;;13.43;114.24;;;;;;2674759;76;20318;-92
2023/04/30 18:55:30;;;;;;;;;;;13.39;114.05;;;;;;2674895;76;20315;-92
2023/04/30 18:58:58;;;;;;;;;;;13.33;114.41;;;;;;2675472;76;20369;-92
2023/04/30 19:02:27;;;;;;;;;;;13.30;114.69;;;;;;2675199;76;20307;-92
2023/04/30 19:05:58;;;;;;;;;;;13.22;114.43;;;;;;2675456;76;20325;-92
2023/04/30 19:09:26;;;;;;;;;;;13.14;114.48;;;;;;2675533;76;20325;-92
2023/04/30 19:12:54;;;;;;;;;;;13.06;115.12;;;;;;2674907;76;20326;-92
2023/04/30 19:16:23;;;;;;;;;;;12.96;115.41;;;;;;2675537;76;20292;-92
2023/04/30 19:19:51;;;;;;;;;;;12.90;115.68;;;;;;2675675;76;20756;-92
2023/04/30 19:23:20;;;;;;;;;;;12.84;116.04;;;;;;2675607;76;21133;-92
2023/04/30 19:26:48;;;;;;;;;;;12.77;116.23;;;;;;2675375;76;20346;-93
2023/04/30 19:30:16;;;;;;;;;;;12.69;116.73;;;;;;2675542;76;20326;-92
2023/04/30 19:33:44;;;;;;;;;;;12.62;117.07;;;;;;2674891;76;20818;-92
2023/04/30 19:37:12;;;;;;;;;;;12.57;117.12;;;;;;2674951;76;20303;-93
2023/04/30 19:40:40;;;;;;;;;;;12.50;117.08;;;;;;2675015;76;20318;-92
2023/04/30 19:44:09;;;;;;;;;;;12.43;117.28;;;;;;2675167;76;20374;-92
2023/04/30 19:47:40;;;;;;;;;;;12.36;117.49;;;;;;2675872;76;20325;-93
2023/04/30 19:51:08;;;;;;;;;;;12.34;117.52;;;;;;2675530;76;20351;-92
2023/04/30 19:54:36;;;;;;;;;;;12.28;118.05;;;;;;2675197;76;20320;-92
2023/04/30 19:58:04;;;;;;;;;;;12.26;118.05;;;;;;2675425;76;20292;-92
2023/04/30 20:01:32;;;;;;;;;;;12.19;117.85;;;;;;2674509;76;20319;-92
2023/04/30 20:05:03;;;;;;;;;;;12.16;118.37;;;;;;2674842;76;20864;-92
2023/04/30 20:08:31;;;;;;;;;;;12.12;118.28;;;;;;2674938;76;20800;-92
2023/04/30 20:12:03;;;;;;;;;;;12.08;118.30;;;;;;2675705;76;20352;-92
2023/04/30 20:15:29;;;;;;;;;;;11.97;118.26;;;;;;2675009;76;20308;-92
2023/04/30 20:18:57;;;;;;;;;;;11.94;118.57;;;;;;2674335;76;20336;-92
2023/04/30 20:22:30;;;;;;;;;;;11.89;118.31;;;;;;2674398;76;20741;-93
2023/04/30 20:25:58;;;;;;;;;;;11.84;118.15;;;;;;2674512;76;20744;-92
2023/04/30 20:29:28;;;;;;;;;;;11.75;118.07;;;;;;2674975;76;20303;-92